Parkerford, Pennsylvania
Current Conditions -  °F | °C
As of 2:54 PM on Tuesday 25 Nov 2014 (Local Time) from KPTW Reporting Station
Clear Clear  
Wind Chill: 12°   Ceiling: Unl
Heat Index: 12°   Visibility: 10mi
Dew Point: -2°   Wind: 9mph
Humidity: 40%   Direction: 300°WNW
Pressure: 30.03"   Gusts: NA
Location:  40.2094°N, 75.5919°W
Report Text: KPTW 251954Z AUTO 30008KT 10SM CLR 12/M02 A3003 RMK AO2 SLP164 T01171017
Loading
Personal Weather Stations






























Interactive Weather Map New forecast layout! Learn more

10-Day Weather Forecast

Advertisements
Track Severe Weather on mobile